createdAt,value
2018-12-03T00:01:24.763Z,8.77
2018-12-03T00:03:54.264Z,9.60
2018-12-03T00:06:23.588Z,8.83
2018-12-03T00:08:53.060Z,9.20
2018-12-03T00:11:22.693Z,8.20
2018-12-03T00:13:51.973Z,9.83
2018-12-03T00:16:21.266Z,7.67
2018-12-03T00:18:50.644Z,8.83
2018-12-03T00:21:19.977Z,8.90
2018-12-03T00:23:49.337Z,9.57
2018-12-03T00:26:18.941Z,8.80
2018-12-03T00:28:48.406Z,11.00
2018-12-03T00:31:18.055Z,9.50
2018-12-03T00:33:47.422Z,11.60
2018-12-03T00:36:16.893Z,10.23
2018-12-03T00:38:46.272Z,10.37
2018-12-03T00:41:15.648Z,11.00
2018-12-03T00:43:45.056Z,10.80
2018-12-03T00:46:14.377Z,9.37
2018-12-03T00:48:50.582Z,10.27
2018-12-03T00:51:19.880Z,8.90
2018-12-03T00:53:49.181Z,9.77
2018-12-03T00:56:18.521Z,8.67
2018-12-03T00:58:47.950Z,8.40
2018-12-03T01:01:17.223Z,8.87
2018-12-03T01:03:46.569Z,8.97
2018-12-03T01:06:15.992Z,8.50
2018-12-03T01:08:45.265Z,7.60
2018-12-03T01:11:14.542Z,8.30
2018-12-03T01:13:43.944Z,8.57
2018-12-03T01:16:13.311Z,8.40
2018-12-03T01:18:42.755Z,8.30
2018-12-03T01:21:12.014Z,9.03
2018-12-03T01:23:41.389Z,8.03
2018-12-03T01:26:10.716Z,8.10
2018-12-03T01:28:40.159Z,8.57
2018-12-03T01:31:09.442Z,8.13
2018-12-03T01:33:38.993Z,9.70
2018-12-03T01:36:08.367Z,10.60
2018-12-03T01:38:37.761Z,10.47
2018-12-03T01:41:07.379Z,10.40
2018-12-03T01:43:36.733Z,9.83
2018-12-03T01:46:06.571Z,12.70
2018-12-03T01:48:35.896Z,12.40
2018-12-03T01:51:06.036Z,13.20
2018-12-03T01:53:35.513Z,12.03
2018-12-03T01:56:05.099Z,13.27
2018-12-03T01:58:34.459Z,14.73
2018-12-03T02:01:03.870Z,13.73
2018-12-03T02:03:33.169Z,14.60
2018-12-03T02:06:02.828Z,13.77
2018-12-03T02:08:32.063Z,15.20
2018-12-03T02:11:01.415Z,16.07
2018-12-03T02:13:30.904Z,15.07
2018-12-03T02:16:00.256Z,15.87
2018-12-03T02:18:30.014Z,17.60
2018-12-03T02:20:59.459Z,16.93
2018-12-03T02:23:28.816Z,15.80
2018-12-03T02:25:58.188Z,16.93
2018-12-03T02:28:27.535Z,15.83
2018-12-03T02:30:56.820Z,14.27
2018-12-03T02:33:26.085Z,16.30
2018-12-03T02:35:55.406Z,16.43
2018-12-03T02:38:24.708Z,15.37
2018-12-03T02:40:53.948Z,16.07
2018-12-03T02:43:23.536Z,17.73
2018-12-03T02:45:52.872Z,14.03
2018-12-03T02:48:22.111Z,15.70
2018-12-03T02:50:52.251Z,13.83
2018-12-03T02:53:21.588Z,15.30
2018-12-03T02:55:50.992Z,14.83
2018-12-03T02:58:20.380Z,16.90
2018-12-03T03:00:49.736Z,15.17
2018-12-03T03:03:19.214Z,18.20
2018-12-03T03:05:49.324Z,15.53
2018-12-03T03:08:18.686Z,16.37
2018-12-03T03:10:48.057Z,17.13
2018-12-03T03:13:17.423Z,17.93
2018-12-03T03:15:46.684Z,15.30
2018-12-03T03:18:15.951Z,17.73
2018-12-03T03:20:45.893Z,16.03
2018-12-03T03:23:15.179Z,18.57
2018-12-03T03:25:44.436Z,17.47
2018-12-03T03:28:14.051Z,18.90
2018-12-03T03:30:43.390Z,17.43
2018-12-03T03:33:12.709Z,18.20
2018-12-03T03:35:42.007Z,16.57
2018-12-03T03:38:11.261Z,17.70
2018-12-03T03:40:40.687Z,16.00
2018-12-03T03:43:10.852Z,16.87
2018-12-03T03:45:40.244Z,18.03
2018-12-03T03:48:09.512Z,17.33
2018-12-03T03:50:38.902Z,17.10
2018-12-03T03:53:08.140Z,17.43
2018-12-03T03:55:37.391Z,17.43
2018-12-03T03:58:07.539Z,18.10
2018-12-03T04:00:36.845Z,18.03
2018-12-03T04:03:06.184Z,17.10
2018-12-03T04:05:35.627Z,18.63
2018-12-03T04:08:04.948Z,15.40
2018-12-03T04:10:34.209Z,17.47
2018-12-03T04:13:03.487Z,17.00
2018-12-03T04:15:32.877Z,19.63
2018-12-03T04:18:04.261Z,19.43
2018-12-03T04:20:33.823Z,19.40
2018-12-03T04:23:03.654Z,22.93
2018-12-03T04:25:33.031Z,21.70
2018-12-03T04:28:02.324Z,21.40
2018-12-03T04:30:34.627Z,19.27
2018-12-03T04:33:04.975Z,19.67
2018-12-03T04:35:34.433Z,22.37
2018-12-03T04:38:03.707Z,21.47
2018-12-03T04:40:33.008Z,21.90
2018-12-03T04:43:02.315Z,22.67
2018-12-03T04:45:31.583Z,21.57
2018-12-03T04:48:01.115Z,19.63
2018-12-03T04:50:30.483Z,20.00
2018-12-03T04:52:59.715Z,19.03
2018-12-03T04:55:29.006Z,19.20
2018-12-03T04:57:58.401Z,20.23
2018-12-03T05:00:27.640Z,19.70
2018-12-03T05:02:56.892Z,17.93
2018-12-03T05:05:26.961Z,17.40
2018-12-03T05:07:56.899Z,20.17
2018-12-03T05:10:26.185Z,19.40
2018-12-03T05:12:55.420Z,17.37
2018-12-03T05:15:24.684Z,18.50
2018-12-03T05:17:53.973Z,19.03
2018-12-03T05:20:24.555Z,20.33
2018-12-03T05:22:53.792Z,18.93
2018-12-03T05:25:23.120Z,18.10
2018-12-03T05:27:52.401Z,17.60
2018-12-03T05:30:21.864Z,18.77
2018-12-03T05:32:51.158Z,17.93
2018-12-03T05:35:23.075Z,17.90
2018-12-03T05:37:52.322Z,14.50
2018-12-03T05:40:25.596Z,16.93
2018-12-03T05:42:54.934Z,17.87
2018-12-03T05:45:24.199Z,15.63
2018-12-03T05:47:53.461Z,16.07
2018-12-03T05:50:22.738Z,18.13
2018-12-03T05:52:51.931Z,16.70
2018-12-03T05:55:21.271Z,17.00
2018-12-03T05:57:53.557Z,17.10
2018-12-03T06:00:23.973Z,18.90
2018-12-03T06:02:53.381Z,16.90
2018-12-03T06:05:22.658Z,18.10
2018-12-03T06:07:52.027Z,18.43
2018-12-03T06:10:22.464Z,17.40
2018-12-03T06:12:51.900Z,17.37
2018-12-03T06:15:21.952Z,17.70
2018-12-03T06:17:53.243Z,19.20
2018-12-03T06:20:23.175Z,18.40
2018-12-03T06:22:53.650Z,18.03
2018-12-03T06:25:25.880Z,17.00
2018-12-03T06:27:55.079Z,17.20
2018-12-03T06:30:25.265Z,17.00
2018-12-03T06:32:54.632Z,16.90
2018-12-03T06:35:24.044Z,17.10
2018-12-03T06:37:53.267Z,15.83
2018-12-03T06:40:29.054Z,16.67
2018-12-03T06:42:58.412Z,17.33
2018-12-03T06:45:28.140Z,15.63
2018-12-03T06:48:14.129Z,17.03
2018-12-03T06:50:43.490Z,15.43
2018-12-03T06:53:12.866Z,16.37
2018-12-03T06:55:42.360Z,16.60
2018-12-03T06:58:11.670Z,16.43
2018-12-03T07:00:41.197Z,16.53
2018-12-03T07:03:10.615Z,16.47
2018-12-03T07:05:39.975Z,17.77
2018-12-03T07:08:10.223Z,15.17
2018-12-03T07:10:41.174Z,17.83
2018-12-03T07:13:12.741Z,17.33
2018-12-03T07:15:43.548Z,16.77
2018-12-03T07:18:13.370Z,14.90
2018-12-03T07:20:42.835Z,14.10
2018-12-03T07:23:12.280Z,12.07
2018-12-03T07:25:42.200Z,11.80
2018-12-03T07:28:11.557Z,12.00
2018-12-03T07:30:44.270Z,10.73
2018-12-03T07:33:13.778Z,9.97
2018-12-03T07:35:43.067Z,11.57
2018-12-03T07:38:12.456Z,9.90
2018-12-03T07:40:41.879Z,10.17
2018-12-03T07:43:11.268Z,9.10
2018-12-03T07:45:42.849Z,9.17
2018-12-03T07:48:12.199Z,9.03
2018-12-03T07:50:41.571Z,7.60
2018-12-03T07:53:11.009Z,7.37
2018-12-03T07:55:40.334Z,6.07
2018-12-03T07:58:13.742Z,6.20
2018-12-03T08:00:45.695Z,6.43
2018-12-03T08:03:15.089Z,6.17
2018-12-03T08:05:44.392Z,5.13
2018-12-03T08:08:13.677Z,5.17
2018-12-03T08:10:46.786Z,5.60
2018-12-03T08:13:16.865Z,5.30
2018-12-03T08:15:46.345Z,6.63
2018-12-03T08:18:17.520Z,5.67
2018-12-03T08:20:52.296Z,5.70
2018-12-03T08:23:26.433Z,7.00
2018-12-03T08:26:01.691Z,5.83
2018-12-03T08:28:31.354Z,6.67
2018-12-03T08:31:01.221Z,5.87
2018-12-03T08:33:30.716Z,5.63
2018-12-03T08:36:00.118Z,5.70
2018-12-03T08:38:29.408Z,5.23
2018-12-03T08:41:02.150Z,4.40
2018-12-03T08:43:31.433Z,4.70
2018-12-03T08:46:02.110Z,4.97
2018-12-03T08:48:34.628Z,5.80
2018-12-03T08:51:04.788Z,4.97
2018-12-03T08:53:34.058Z,4.67
2018-12-03T08:56:03.576Z,5.23
2018-12-03T08:58:32.937Z,6.00
2018-12-03T09:01:07.259Z,4.43
2018-12-03T09:03:36.785Z,4.70
2018-12-03T09:06:08.602Z,5.10
2018-12-03T09:08:38.174Z,5.03
2018-12-03T09:11:10.002Z,5.30
2018-12-03T09:13:39.434Z,5.23
2018-12-03T09:16:08.686Z,4.23
2018-12-03T09:18:39.509Z,4.30
2018-12-03T09:21:13.183Z,5.20
2018-12-03T09:23:43.789Z,5.87
2018-12-03T09:26:13.823Z,4.33
2018-12-03T09:28:43.136Z,5.23
2018-12-03T09:31:20.894Z,5.53
2018-12-03T09:33:57.513Z,4.27
2018-12-03T09:36:28.295Z,4.77
2018-12-03T09:39:05.551Z,4.80
2018-12-03T09:41:34.957Z,5.20
2018-12-03T09:44:04.198Z,5.17
2018-12-03T09:46:33.515Z,4.53
2018-12-03T09:49:06.322Z,5.40
2018-12-03T09:51:36.712Z,5.57
2018-12-03T09:54:07.891Z,6.33
2018-12-03T09:56:42.970Z,6.87
2018-12-03T09:59:17.636Z,5.60
2018-12-03T10:01:48.456Z,5.00
2018-12-03T10:04:35.267Z,5.93
2018-12-03T10:07:04.621Z,5.07
2018-12-03T10:09:37.141Z,4.30
2018-12-03T10:12:08.092Z,6.40
2018-12-03T10:14:37.481Z,4.93
2018-12-03T10:17:07.490Z,3.90
2018-12-03T10:19:36.825Z,6.00
2018-12-03T10:22:07.523Z,5.93
2018-12-03T10:24:38.240Z,5.67
2018-12-03T10:27:11.659Z,4.90
2018-12-03T10:29:41.630Z,5.70
2018-12-03T10:32:14.958Z,4.57
2018-12-03T10:34:45.087Z,4.90
2018-12-03T10:37:14.523Z,4.70
2018-12-03T10:39:44.032Z,6.37
2018-12-03T10:42:14.999Z,6.60
2018-12-03T10:44:44.611Z,5.47
2018-12-03T10:47:14.058Z,7.53
2018-12-03T10:49:43.594Z,5.43
2018-12-03T10:52:17.847Z,5.60
2018-12-03T10:54:47.304Z,5.23
2018-12-03T10:57:19.649Z,5.63
2018-12-03T10:59:53.347Z,5.80
2018-12-03T11:03:41.897Z,5.67
2018-12-03T11:06:17.284Z,5.60
2018-12-03T11:08:46.953Z,6.87
2018-12-03T11:11:16.362Z,5.83
2018-12-03T11:13:45.611Z,6.07
2018-12-03T11:16:50.906Z,6.20
2018-12-03T11:19:20.238Z,6.43
2018-12-03T11:21:49.544Z,6.73
2018-12-03T11:24:18.860Z,6.20
2018-12-03T11:26:49.999Z,5.30
2018-12-03T11:29:19.386Z,5.83
2018-12-03T11:31:48.763Z,5.70
2018-12-03T11:34:22.440Z,6.90
2018-12-03T11:36:58.667Z,6.20
2018-12-03T11:39:58.654Z,5.67
2018-12-03T11:42:31.869Z,5.53
2018-12-03T11:45:01.178Z,7.30
2018-12-03T11:47:30.493Z,4.50
2018-12-03T11:49:59.768Z,5.30
2018-12-03T11:52:29.809Z,4.83
2018-12-03T11:54:59.057Z,6.70
2018-12-03T11:57:28.499Z,6.03
2018-12-03T11:59:58.259Z,5.30
2018-12-03T12:02:28.432Z,5.80
2018-12-03T12:04:57.766Z,7.53
2018-12-03T12:07:27.130Z,6.60
2018-12-03T12:09:56.383Z,5.53
2018-12-03T12:12:25.732Z,5.60
2018-12-03T12:14:56.688Z,5.80
2018-12-03T12:17:25.927Z,5.83
2018-12-03T12:19:55.206Z,5.23
2018-12-03T12:22:25.525Z,5.47
2018-12-03T12:24:54.812Z,6.70
2018-12-03T12:27:24.297Z,5.37
2018-12-03T12:29:53.817Z,6.03
2018-12-03T12:32:23.300Z,7.93
2018-12-03T12:34:52.653Z,7.50
2018-12-03T12:37:22.205Z,6.10
2018-12-03T12:39:51.738Z,4.60
2018-12-03T12:42:22.710Z,5.00
2018-12-03T12:44:52.114Z,5.10
2018-12-03T12:47:21.321Z,5.20
2018-12-03T12:49:50.749Z,6.43
2018-12-03T12:52:25.189Z,6.20
2018-12-03T12:54:54.473Z,5.20
2018-12-03T12:57:23.719Z,5.90
2018-12-03T12:59:53.417Z,5.53
2018-12-03T13:02:22.809Z,4.87
2018-12-03T13:04:52.055Z,5.70
2018-12-03T13:07:21.391Z,6.30
2018-12-03T13:09:50.669Z,6.20
2018-12-03T13:12:21.080Z,6.07
2018-12-03T13:14:50.490Z,6.10
2018-12-03T13:17:19.840Z,5.80
2018-12-03T13:19:49.155Z,4.67
2018-12-03T13:22:19.267Z,5.90
2018-12-03T13:24:48.489Z,5.63
2018-12-03T13:27:17.764Z,5.33
2018-12-03T13:29:47.176Z,8.47
2018-12-03T13:32:16.484Z,5.10
2018-12-03T13:34:45.888Z,6.93
2018-12-03T13:37:15.399Z,6.20
2018-12-03T13:39:44.989Z,6.93
2018-12-03T13:42:14.444Z,5.10
2018-12-03T13:44:44.204Z,5.20
2018-12-03T13:47:13.259Z,4.57
2018-12-03T13:49:50.046Z,5.33
2018-12-03T13:52:19.348Z,6.13
2018-12-03T13:54:48.638Z,4.23
2018-12-03T13:57:19.557Z,5.90
2018-12-03T13:59:49.912Z,4.97
2018-12-03T14:02:19.351Z,6.73
2018-12-03T14:04:48.819Z,4.60
2018-12-03T14:07:26.725Z,7.27
2018-12-03T14:11:25.166Z,7.87
2018-12-03T14:14:14.472Z,8.63
2018-12-03T14:17:17.895Z,6.03
2018-12-03T14:19:50.690Z,5.87
2018-12-03T14:22:23.595Z,5.67
2018-12-03T14:24:54.994Z,5.83
2018-12-03T14:27:24.514Z,4.60
2018-12-03T14:29:54.031Z,5.03
2018-12-03T14:32:23.426Z,5.80
2018-12-03T14:34:52.672Z,5.20
2018-12-03T14:37:22.100Z,6.00
2018-12-03T14:39:51.500Z,6.57
2018-12-03T14:42:20.883Z,6.87
2018-12-03T14:44:50.327Z,5.60
2018-12-03T14:47:19.718Z,6.27
2018-12-03T14:49:49.027Z,7.13
2018-12-03T14:52:18.432Z,7.00
2018-12-03T14:54:48.189Z,4.90
2018-12-03T14:57:17.661Z,6.00
2018-12-03T14:59:47.097Z,6.27
2018-12-03T15:02:16.604Z,5.00
2018-12-03T15:04:46.080Z,6.20
2018-12-03T15:07:15.341Z,5.50
2018-12-03T15:09:44.767Z,7.23
2018-12-03T15:12:14.180Z,6.23
2018-12-03T15:14:45.020Z,5.87
2018-12-03T15:17:14.279Z,6.20
2018-12-03T15:19:44.782Z,5.60
2018-12-03T15:22:14.214Z,6.73
2018-12-03T15:24:44.788Z,6.33
2018-12-03T15:27:15.344Z,6.17
2018-12-03T15:29:44.879Z,6.90
2018-12-03T15:32:14.358Z,6.30
2018-12-03T15:34:44.357Z,5.10
2018-12-03T15:37:13.860Z,5.90
2018-12-03T15:39:44.899Z,5.33
2018-12-03T15:42:16.264Z,5.00
2018-12-03T15:44:47.779Z,6.27
2018-12-03T15:47:18.500Z,6.60
2018-12-03T15:49:48.135Z,5.97
2018-12-03T15:52:18.281Z,7.40
2018-12-03T15:54:48.791Z,6.47
2018-12-03T15:57:18.617Z,4.10
2018-12-03T15:59:48.053Z,5.33
2018-12-03T16:02:18.170Z,4.70
2018-12-03T16:04:47.536Z,4.83
2018-12-03T16:07:16.814Z,4.80
2018-12-03T16:09:47.353Z,3.93
2018-12-03T16:12:17.877Z,6.20
2018-12-03T16:14:47.291Z,6.73
2018-12-03T16:17:20.189Z,3.93
2018-12-03T16:19:47.533Z,5.57
2018-12-03T16:22:22.036Z,5.57
2018-12-03T16:24:51.578Z,6.27
2018-12-03T16:27:21.081Z,5.40
2018-12-03T16:29:50.522Z,5.67
2018-12-03T16:32:20.296Z,6.43
2018-12-03T16:34:49.752Z,5.07
2018-12-03T16:37:20.261Z,5.20
2018-12-03T16:39:50.601Z,4.97
2018-12-03T16:42:19.882Z,6.00
2018-12-03T16:44:49.388Z,5.70
2018-12-03T16:47:19.732Z,6.00
2018-12-03T16:49:49.123Z,4.73
2018-12-03T16:52:18.700Z,5.23
2018-12-03T16:54:48.030Z,5.90
2018-12-03T16:57:17.652Z,6.30
2018-12-03T16:59:47.238Z,5.50
2018-12-03T17:02:16.966Z,4.00
2018-12-03T17:04:46.875Z,6.53
2018-12-03T17:07:16.485Z,6.10
2018-12-03T17:09:52.430Z,5.13
2018-12-03T17:12:26.605Z,5.83
2018-12-03T17:14:55.925Z,6.70
2018-12-03T17:17:25.717Z,5.17
2018-12-03T17:19:55.611Z,5.50
2018-12-03T17:22:32.126Z,6.50
2018-12-03T17:25:01.452Z,6.17
2018-12-03T17:27:30.995Z,6.10
2018-12-03T17:30:00.416Z,5.90
2018-12-03T17:32:31.077Z,5.67
2018-12-03T17:35:00.573Z,5.23
2018-12-03T17:37:29.967Z,6.80
2018-12-03T17:40:00.936Z,5.83
2018-12-03T17:42:30.322Z,7.47
2018-12-03T17:45:00.741Z,6.70
2018-12-03T17:47:31.614Z,6.17
2018-12-03T17:50:01.843Z,6.83
2018-12-03T17:52:34.387Z,7.17
2018-12-03T17:55:06.521Z,6.87
2018-12-03T17:57:35.981Z,5.83
2018-12-03T18:00:12.052Z,7.77
2018-12-03T18:02:41.681Z,5.97
2018-12-03T18:05:12.140Z,6.00
2018-12-03T18:07:41.535Z,6.27
2018-12-03T18:10:11.612Z,5.20
2018-12-03T18:12:47.208Z,6.80
2018-12-03T18:15:18.522Z,5.97
2018-12-03T18:17:48.861Z,5.50
2018-12-03T18:20:19.768Z,5.90
2018-12-03T18:22:50.062Z,4.57
2018-12-03T18:25:19.356Z,6.53
2018-12-03T18:27:49.697Z,6.23
2018-12-03T18:33:38.564Z,6.60
2018-12-03T18:36:08.540Z,6.00
2018-12-03T18:38:38.146Z,5.67
2018-12-03T18:41:08.316Z,6.67
2018-12-03T18:43:39.259Z,5.80
2018-12-03T18:46:10.326Z,6.57
2018-12-03T18:48:39.928Z,5.63
2018-12-03T18:51:10.296Z,5.87
2018-12-03T18:53:41.027Z,6.40
2018-12-03T18:56:10.944Z,5.40
2018-12-03T18:58:45.054Z,6.07
2018-12-03T19:01:14.376Z,4.50
2018-12-03T19:03:43.965Z,6.03
2018-12-03T19:06:13.713Z,5.53
2018-12-03T19:08:43.481Z,4.80
2018-12-03T19:11:13.422Z,6.07
2018-12-03T19:13:43.318Z,4.73
2018-12-03T19:16:14.262Z,4.70
2018-12-03T19:18:44.178Z,5.40
2018-12-03T19:21:13.841Z,4.43
2018-12-03T19:23:44.470Z,6.20
2018-12-03T19:26:13.844Z,5.17
2018-12-03T19:28:43.393Z,4.37
2018-12-03T19:31:12.771Z,5.00
2018-12-03T19:33:42.457Z,5.37
2018-12-03T19:36:11.738Z,4.47
2018-12-03T19:38:41.085Z,5.20
2018-12-03T19:43:56.591Z,5.17
2018-12-03T19:46:26.160Z,4.00
2018-12-03T19:48:55.697Z,4.73
2018-12-03T19:51:25.374Z,6.00
2018-12-03T19:53:56.718Z,4.90
2018-12-03T19:56:26.214Z,5.03
2018-12-03T19:58:56.681Z,3.90
2018-12-03T20:01:26.263Z,4.37
2018-12-03T20:03:55.572Z,5.30
2018-12-03T20:06:24.925Z,5.03
2018-12-03T20:08:54.357Z,6.03
2018-12-03T20:11:25.043Z,3.90
2018-12-03T20:13:54.483Z,5.23
2018-12-03T20:16:24.592Z,5.33
2018-12-03T20:18:54.170Z,4.73
2018-12-03T20:21:25.526Z,3.90
2018-12-03T20:23:57.750Z,5.43
2018-12-03T20:30:35.833Z,4.03
2018-12-03T20:33:10.078Z,5.90
2018-12-03T20:35:54.293Z,6.27
2018-12-03T20:38:46.822Z,5.20
2018-12-03T20:41:48.883Z,5.60
2018-12-03T20:44:32.643Z,3.63
2018-12-03T20:47:34.192Z,5.40
2018-12-03T20:50:17.534Z,4.87
2018-12-03T20:52:52.926Z,4.57
2018-12-03T20:55:26.896Z,5.67
2018-12-03T20:57:56.389Z,4.10
2018-12-03T21:00:25.799Z,4.07
2018-12-03T21:02:59.144Z,4.73
2018-12-03T21:05:30.137Z,4.97
2018-12-03T21:08:00.100Z,4.10
2018-12-03T21:10:29.636Z,4.03
2018-12-03T21:13:00.569Z,2.50
2018-12-03T21:15:30.094Z,3.20
2018-12-03T21:17:59.669Z,2.90
2018-12-03T21:20:35.683Z,2.53
2018-12-03T21:23:05.486Z,2.70
2018-12-03T21:25:44.336Z,2.90
2018-12-03T21:28:31.678Z,2.00
2018-12-03T21:31:02.220Z,2.83
2018-12-03T21:33:31.860Z,2.45
2018-12-03T21:36:01.985Z,2.58
2018-12-03T21:38:31.753Z,4.10
2018-12-03T21:41:02.500Z,2.50
2018-12-03T21:43:31.825Z,2.20
2018-12-03T21:46:01.413Z,2.90
2018-12-03T21:48:30.791Z,2.30
2018-12-03T21:51:00.117Z,2.40
2018-12-03T21:53:29.563Z,2.40
2018-12-03T21:55:58.878Z,2.25
2018-12-03T21:58:28.350Z,1.95
2018-12-03T22:00:58.099Z,1.40
2018-12-03T22:03:28.600Z,2.40
2018-12-03T22:05:57.880Z,3.83
2018-12-03T22:08:29.354Z,2.40
2018-12-03T22:10:58.745Z,2.33
2018-12-03T22:13:28.049Z,1.40
2018-12-03T22:15:57.441Z,1.80
2018-12-03T22:18:27.670Z,2.50
2018-12-03T22:20:56.959Z,2.20
2018-12-03T22:23:26.294Z,1.92
2018-12-03T22:25:56.623Z,1.60
2018-12-03T22:28:26.063Z,2.12
2018-12-03T22:30:55.501Z,1.80
2018-12-03T22:33:25.536Z,1.57
2018-12-03T22:35:54.949Z,2.10
2018-12-03T22:38:24.880Z,2.10
2018-12-03T22:40:54.383Z,1.85
2018-12-03T22:43:23.718Z,1.67
2018-12-03T22:45:53.342Z,2.90
2018-12-03T22:48:23.148Z,2.30
2018-12-03T22:50:52.823Z,1.95
2018-12-03T22:53:23.162Z,3.33
2018-12-03T22:55:53.848Z,2.20
2018-12-03T22:58:23.236Z,1.87
2018-12-03T23:01:00.159Z,3.08
2018-12-03T23:03:29.664Z,2.30
2018-12-03T23:05:59.021Z,2.30
2018-12-03T23:08:29.152Z,2.10
2018-12-03T23:10:58.980Z,1.70
2018-12-03T23:13:31.355Z,2.10
2018-12-03T23:16:00.699Z,2.33
2018-12-03T23:18:30.198Z,2.42
2018-12-03T23:21:00.591Z,1.65
2018-12-03T23:23:30.457Z,1.75
2018-12-03T23:25:59.918Z,1.95
2018-12-03T23:28:30.850Z,2.90
2018-12-03T23:31:00.413Z,1.65
2018-12-03T23:33:30.767Z,2.20
2018-12-03T23:36:00.301Z,1.45
2018-12-03T23:38:29.796Z,1.90
2018-12-03T23:40:59.706Z,2.85
2018-12-03T23:43:29.236Z,3.12
2018-12-03T23:45:59.368Z,2.37
2018-12-03T23:48:29.156Z,1.85
2018-12-03T23:50:58.728Z,1.75
2018-12-03T23:53:28.243Z,1.80
2018-12-03T23:55:57.867Z,2.42
2018-12-03T23:58:27.327Z,1.30
